sensor_id;sensor_type;location;lat;lon;timestamp;temperature;humidity
1948;DHT22;974;52.400;9.818;2023-07-31T00:00:52;16.20;99.90
1948;DHT22;974;52.400;9.818;2023-07-31T00:03:18;16.20;99.90
1948;DHT22;974;52.400;9.818;2023-07-31T00:05:43;16.20;99.90
1948;DHT22;974;52.400;9.818;2023-07-31T00:08:09;16.20;99.90
1948;DHT22;974;52.400;9.818;2023-07-31T00:10:35;16.20;99.90
1948;DHT22;974;52.400;9.818;2023-07-31T00:13:03;16.20;99.90
1948;DHT22;974;52.400;9.818;2023-07-31T00:15:29;16.30;99.90
1948;DHT22;974;52.400;9.818;2023-07-31T00:17:55;16.30;99.90
1948;DHT22;974;52.400;9.818;2023-07-31T00:20:29;16.20;99.90
1948;DHT22;974;52.400;9.818;2023-07-31T00:22:55;16.20;99.90
1948;DHT22;974;52.400;9.818;2023-07-31T00:25:21;16.20;99.90
1948;DHT22;974;52.400;9.818;2023-07-31T00:27:50;16.10;99.90
1948;DHT22;974;52.400;9.818;2023-07-31T00:30:15;16.10;99.90
1948;DHT22;974;52.400;9.818;2023-07-31T00:32:41;16.10;99.90
1948;DHT22;974;52.400;9.818;2023-07-31T00:35:07;16.10;99.90
1948;DHT22;974;52.400;9.818;2023-07-31T00:37:33;16.10;99.90
1948;DHT22;974;52.400;9.818;2023-07-31T00:39:58;16.10;99.90
1948;DHT22;974;52.400;9.818;2023-07-31T00:42:24;16.10;99.90
1948;DHT22;974;52.400;9.818;2023-07-31T00:44:50;16.00;99.90
1948;DHT22;974;52.400;9.818;2023-07-31T00:47:15;16.00;99.90
1948;DHT22;974;52.400;9.818;2023-07-31T00:49:41;16.10;99.90
1948;DHT22;974;52.400;9.818;2023-07-31T00:52:09;16.00;99.90
1948;DHT22;974;52.400;9.818;2023-07-31T00:54:38;16.10;99.90
1948;DHT22;974;52.400;9.818;2023-07-31T00:57:04;16.10;99.90
1948;DHT22;974;52.400;9.818;2023-07-31T00:59:32;16.10;99.90
1948;DHT22;974;52.400;9.818;2023-07-31T01:01:58;16.20;99.90
1948;DHT22;974;52.400;9.818;2023-07-31T01:04:23;16.20;99.90
1948;DHT22;974;52.400;9.818;2023-07-31T01:07:14;16.20;99.90
1948;DHT22;974;52.400;9.818;2023-07-31T01:12:17;16.20;99.90
1948;DHT22;974;52.400;9.818;2023-07-31T01:15:02;16.20;99.90
1948;DHT22;974;52.400;9.818;2023-07-31T01:17:28;16.20;99.90
1948;DHT22;974;52.400;9.818;2023-07-31T01:19:56;16.20;99.90
1948;DHT22;974;52.400;9.818;2023-07-31T01:28:50;16.20;99.90
1948;DHT22;974;52.400;9.818;2023-07-31T01:31:21;16.20;99.90
1948;DHT22;974;52.400;9.818;2023-07-31T01:33:48;16.20;99.90
1948;DHT22;974;52.400;9.818;2023-07-31T01:36:17;16.20;99.90
1948;DHT22;974;52.400;9.818;2023-07-31T01:38:43;16.20;99.90
1948;DHT22;974;52.400;9.818;2023-07-31T01:41:08;16.20;99.90
1948;DHT22;974;52.400;9.818;2023-07-31T01:43:34;16.20;99.90
1948;DHT22;974;52.400;9.818;2023-07-31T01:45:59;16.20;99.90
1948;DHT22;974;52.400;9.818;2023-07-31T01:48:25;16.20;99.90
1948;DHT22;974;52.400;9.818;2023-07-31T01:50:50;16.20;99.90
1948;DHT22;974;52.400;9.818;2023-07-31T01:53:16;16.20;99.90
1948;DHT22;974;52.400;9.818;2023-07-31T01:55:42;16.20;99.90
1948;DHT22;974;52.400;9.818;2023-07-31T01:58:07;16.20;99.90
1948;DHT22;974;52.400;9.818;2023-07-31T02:00:33;16.20;99.90
1948;DHT22;974;52.400;9.818;2023-07-31T02:02:59;16.10;99.90
1948;DHT22;974;52.400;9.818;2023-07-31T02:05:25;16.10;99.90
1948;DHT22;974;52.400;9.818;2023-07-31T02:07:50;16.20;99.90
1948;DHT22;974;52.400;9.818;2023-07-31T02:10:16;16.20;99.90
1948;DHT22;974;52.400;9.818;2023-07-31T02:12:42;16.10;99.90
1948;DHT22;974;52.400;9.818;2023-07-31T02:15:07;16.10;99.90
1948;DHT22;974;52.400;9.818;2023-07-31T02:17:33;16.20;99.90
1948;DHT22;974;52.400;9.818;2023-07-31T02:19:59;16.10;99.90
1948;DHT22;974;52.400;9.818;2023-07-31T02:22:24;16.20;99.90
1948;DHT22;974;52.400;9.818;2023-07-31T02:24:50;16.20;99.90
1948;DHT22;974;52.400;9.818;2023-07-31T02:27:15;16.20;99.90
1948;DHT22;974;52.400;9.818;2023-07-31T02:29:41;16.10;99.90
1948;DHT22;974;52.400;9.818;2023-07-31T02:32:15;16.20;99.90
1948;DHT22;974;52.400;9.818;2023-07-31T02:34:41;16.10;99.90
1948;DHT22;974;52.400;9.818;2023-07-31T02:37:09;16.20;99.90
1948;DHT22;974;52.400;9.818;2023-07-31T02:39:34;16.10;99.90
1948;DHT22;974;52.400;9.818;2023-07-31T02:42:00;16.20;99.90
1948;DHT22;974;52.400;9.818;2023-07-31T02:44:25;16.20;99.90
1948;DHT22;974;52.400;9.818;2023-07-31T02:46:51;16.10;99.90
1948;DHT22;974;52.400;9.818;2023-07-31T02:49:17;16.10;99.90
1948;DHT22;974;52.400;9.818;2023-07-31T02:51:42;16.10;99.90
1948;DHT22;974;52.400;9.818;2023-07-31T02:54:08;16.10;99.90
1948;DHT22;974;52.400;9.818;2023-07-31T02:56:33;16.20;99.90
1948;DHT22;974;52.400;9.818;2023-07-31T02:58:59;16.10;99.90
1948;DHT22;974;52.400;9.818;2023-07-31T03:01:24;16.10;99.90
1948;DHT22;974;52.400;9.818;2023-07-31T03:03:50;16.10;99.90
1948;DHT22;974;52.400;9.818;2023-07-31T03:06:15;16.20;99.90
1948;DHT22;974;52.400;9.818;2023-07-31T03:08:41;16.10;99.90
1948;DHT22;974;52.400;9.818;2023-07-31T03:11:06;16.10;99.90
1948;DHT22;974;52.400;9.818;2023-07-31T03:13:32;16.10;99.90
1948;DHT22;974;52.400;9.818;2023-07-31T03:15:57;16.20;99.90
1948;DHT22;974;52.400;9.818;2023-07-31T03:18:23;16.20;99.90
1948;DHT22;974;52.400;9.818;2023-07-31T03:20:48;16.10;99.90
1948;DHT22;974;52.400;9.818;2023-07-31T03:23:14;16.10;99.90
1948;DHT22;974;52.400;9.818;2023-07-31T03:25:54;16.10;99.90
1948;DHT22;974;52.400;9.818;2023-07-31T03:28:20;16.10;99.90
1948;DHT22;974;52.400;9.818;2023-07-31T03:30:46;16.10;99.90
1948;DHT22;974;52.400;9.818;2023-07-31T03:33:11;16.10;99.90
1948;DHT22;974;52.400;9.818;2023-07-31T03:35:37;16.00;99.90
1948;DHT22;974;52.400;9.818;2023-07-31T03:38:02;16.00;99.90
1948;DHT22;974;52.400;9.818;2023-07-31T03:40:28;16.00;99.90
1948;DHT22;974;52.400;9.818;2023-07-31T03:42:53;16.00;99.90
1948;DHT22;974;52.400;9.818;2023-07-31T03:45:19;16.00;99.90
1948;DHT22;974;52.400;9.818;2023-07-31T03:47:44;16.00;99.90
1948;DHT22;974;52.400;9.818;2023-07-31T03:50:10;16.10;99.90
1948;DHT22;974;52.400;9.818;2023-07-31T03:52:36;16.10;99.90
1948;DHT22;974;52.400;9.818;2023-07-31T03:55:01;16.10;99.90
1948;DHT22;974;52.400;9.818;2023-07-31T03:57:27;16.10;99.90
1948;DHT22;974;52.400;9.818;2023-07-31T03:59:52;16.10;99.90
1948;DHT22;974;52.400;9.818;2023-07-31T04:02:18;16.10;99.90
1948;DHT22;974;52.400;9.818;2023-07-31T04:04:47;16.10;99.90
1948;DHT22;974;52.400;9.818;2023-07-31T04:07:12;16.20;99.90
1948;DHT22;974;52.400;9.818;2023-07-31T04:09:38;16.10;99.90
1948;DHT22;974;52.400;9.818;2023-07-31T04:12:03;16.10;99.90
1948;DHT22;974;52.400;9.818;2023-07-31T04:14:29;16.20;99.90
1948;DHT22;974;52.400;9.818;2023-07-31T04:16:55;16.10;99.90
1948;DHT22;974;52.400;9.818;2023-07-31T04:19:20;16.10;99.90
1948;DHT22;974;52.400;9.818;2023-07-31T04:21:45;16.10;99.90
1948;DHT22;974;52.400;9.818;2023-07-31T04:24:11;16.10;99.90
1948;DHT22;974;52.400;9.818;2023-07-31T04:26:36;16.10;99.90
1948;DHT22;974;52.400;9.818;2023-07-31T04:29:02;16.00;99.90
1948;DHT22;974;52.400;9.818;2023-07-31T04:31:27;16.10;99.90
1948;DHT22;974;52.400;9.818;2023-07-31T04:33:53;16.00;99.90
1948;DHT22;974;52.400;9.818;2023-07-31T04:36:18;16.00;99.90
1948;DHT22;974;52.400;9.818;2023-07-31T04:38:47;16.10;99.90
1948;DHT22;974;52.400;9.818;2023-07-31T04:41:13;16.10;99.90
1948;DHT22;974;52.400;9.818;2023-07-31T04:43:41;16.10;99.90
1948;DHT22;974;52.400;9.818;2023-07-31T04:46:07;16.00;99.90
1948;DHT22;974;52.400;9.818;2023-07-31T04:48:32;16.10;99.90
1948;DHT22;974;52.400;9.818;2023-07-31T04:50:58;16.10;99.90
1948;DHT22;974;52.400;9.818;2023-07-31T04:53:23;16.00;99.90
1948;DHT22;974;52.400;9.818;2023-07-31T04:55:49;16.10;99.90
1948;DHT22;974;52.400;9.818;2023-07-31T04:58:14;16.00;99.90
1948;DHT22;974;52.400;9.818;2023-07-31T05:00:40;16.00;99.90
1948;DHT22;974;52.400;9.818;2023-07-31T05:03:05;16.00;99.90
1948;DHT22;974;52.400;9.818;2023-07-31T05:05:32;16.00;99.90
1948;DHT22;974;52.400;9.818;2023-07-31T05:07:57;16.00;99.90
1948;DHT22;974;52.400;9.818;2023-07-31T05:10:23;16.00;99.90
1948;DHT22;974;52.400;9.818;2023-07-31T05:12:48;16.00;99.90
1948;DHT22;974;52.400;9.818;2023-07-31T05:15:14;16.00;99.90
1948;DHT22;974;52.400;9.818;2023-07-31T05:17:40;15.90;99.90
1948;DHT22;974;52.400;9.818;2023-07-31T05:20:06;15.90;99.90
1948;DHT22;974;52.400;9.818;2023-07-31T05:22:31;15.90;99.90
1948;DHT22;974;52.400;9.818;2023-07-31T05:24:57;15.90;99.90
1948;DHT22;974;52.400;9.818;2023-07-31T05:27:25;15.90;99.90
1948;DHT22;974;52.400;9.818;2023-07-31T05:29:51;16.00;99.90
1948;DHT22;974;52.400;9.818;2023-07-31T05:32:16;15.90;99.90
1948;DHT22;974;52.400;9.818;2023-07-31T05:34:42;15.90;99.90
1948;DHT22;974;52.400;9.818;2023-07-31T05:37:09;15.90;99.90
1948;DHT22;974;52.400;9.818;2023-07-31T05:39:35;15.90;99.90
1948;DHT22;974;52.400;9.818;2023-07-31T05:42:00;15.90;99.90
1948;DHT22;974;52.400;9.818;2023-07-31T05:44:26;15.90;99.90
1948;DHT22;974;52.400;9.818;2023-07-31T05:46:51;15.90;99.90
1948;DHT22;974;52.400;9.818;2023-07-31T05:49:17;15.90;99.90
1948;DHT22;974;52.400;9.818;2023-07-31T05:51:42;15.90;99.90
1948;DHT22;974;52.400;9.818;2023-07-31T05:54:08;15.90;99.90
1948;DHT22;974;52.400;9.818;2023-07-31T05:56:33;15.90;99.90
1948;DHT22;974;52.400;9.818;2023-07-31T05:58:59;15.90;99.90
1948;DHT22;974;52.400;9.818;2023-07-31T06:01:25;16.00;99.90
1948;DHT22;974;52.400;9.818;2023-07-31T06:03:50;16.00;99.90
1948;DHT22;974;52.400;9.818;2023-07-31T06:06:15;16.00;99.90
1948;DHT22;974;52.400;9.818;2023-07-31T06:08:41;16.00;99.90
1948;DHT22;974;52.400;9.818;2023-07-31T06:11:07;16.00;99.90
1948;DHT22;974;52.400;9.818;2023-07-31T06:13:34;16.00;99.90
1948;DHT22;974;52.400;9.818;2023-07-31T06:16:00;16.00;99.90
1948;DHT22;974;52.400;9.818;2023-07-31T06:18:30;16.10;99.90
1948;DHT22;974;52.400;9.818;2023-07-31T06:20:56;16.10;99.90
1948;DHT22;974;52.400;9.818;2023-07-31T06:23:24;16.10;99.90
1948;DHT22;974;52.400;9.818;2023-07-31T06:25:50;16.10;99.90
1948;DHT22;974;52.400;9.818;2023-07-31T06:28:15;16.10;99.90
1948;DHT22;974;52.400;9.818;2023-07-31T06:30:41;16.10;99.90
1948;DHT22;974;52.400;9.818;2023-07-31T06:33:06;16.10;99.90
1948;DHT22;974;52.400;9.818;2023-07-31T06:35:32;16.10;99.90
1948;DHT22;974;52.400;9.818;2023-07-31T06:37:57;16.10;99.90
1948;DHT22;974;52.400;9.818;2023-07-31T06:40:23;16.10;99.90
1948;DHT22;974;52.400;9.818;2023-07-31T06:42:48;16.10;99.90
1948;DHT22;974;52.400;9.818;2023-07-31T06:45:14;16.10;99.90
1948;DHT22;974;52.400;9.818;2023-07-31T06:47:40;16.10;99.90
1948;DHT22;974;52.400;9.818;2023-07-31T06:50:05;16.10;99.90
1948;DHT22;974;52.400;9.818;2023-07-31T06:52:34;16.10;99.90
1948;DHT22;974;52.400;9.818;2023-07-31T06:55:04;16.10;99.90
1948;DHT22;974;52.400;9.818;2023-07-31T06:57:41;16.20;99.90
1948;DHT22;974;52.400;9.818;2023-07-31T07:00:07;16.10;99.90
1948;DHT22;974;52.400;9.818;2023-07-31T07:02:33;16.10;99.90
1948;DHT22;974;52.400;9.818;2023-07-31T07:04:58;16.10;99.90
1948;DHT22;974;52.400;9.818;2023-07-31T07:07:23;16.10;99.90
1948;DHT22;974;52.400;9.818;2023-07-31T07:09:49;16.10;99.90
1948;DHT22;974;52.400;9.818;2023-07-31T07:12:17;16.10;99.90
1948;DHT22;974;52.400;9.818;2023-07-31T07:14:43;16.10;99.90
1948;DHT22;974;52.400;9.818;2023-07-31T07:17:08;16.10;99.90
1948;DHT22;974;52.400;9.818;2023-07-31T07:19:34;16.10;99.90
1948;DHT22;974;52.400;9.818;2023-07-31T07:21:59;16.10;99.90
1948;DHT22;974;52.400;9.818;2023-07-31T07:24:27;16.10;99.90
1948;DHT22;974;52.400;9.818;2023-07-31T07:26:53;16.10;99.90
1948;DHT22;974;52.400;9.818;2023-07-31T07:29:18;16.20;99.90
1948;DHT22;974;52.400;9.818;2023-07-31T07:31:43;16.20;99.90
1948;DHT22;974;52.400;9.818;2023-07-31T07:34:09;16.20;99.90
1948;DHT22;974;52.400;9.818;2023-07-31T07:36:34;16.20;99.90
1948;DHT22;974;52.400;9.818;2023-07-31T07:39:00;16.20;99.90
1948;DHT22;974;52.400;9.818;2023-07-31T07:41:25;16.30;99.90
1948;DHT22;974;52.400;9.818;2023-07-31T07:43:51;16.40;99.90
1948;DHT22;974;52.400;9.818;2023-07-31T07:46:17;16.40;99.90
1948;DHT22;974;52.400;9.818;2023-07-31T07:48:42;16.50;99.90
1948;DHT22;974;52.400;9.818;2023-07-31T07:51:08;16.60;99.90
1948;DHT22;974;52.400;9.818;2023-07-31T07:53:33;16.60;99.90
1948;DHT22;974;52.400;9.818;2023-07-31T07:55:59;16.60;99.90
1948;DHT22;974;52.400;9.818;2023-07-31T07:58:24;16.60;99.90
1948;DHT22;974;52.400;9.818;2023-07-31T08:00:51;16.70;99.90
1948;DHT22;974;52.400;9.818;2023-07-31T08:03:16;16.70;99.90
1948;DHT22;974;52.400;9.818;2023-07-31T08:05:43;16.80;99.90
1948;DHT22;974;52.400;9.818;2023-07-31T08:08:13;16.90;99.90
1948;DHT22;974;52.400;9.818;2023-07-31T08:10:42;16.80;99.90
1948;DHT22;974;52.400;9.818;2023-07-31T08:13:10;16.80;99.90
1948;DHT22;974;52.400;9.818;2023-07-31T08:15:36;16.90;99.90
1948;DHT22;974;52.400;9.818;2023-07-31T08:18:01;16.90;99.90
1948;DHT22;974;52.400;9.818;2023-07-31T08:20:27;16.80;99.90
1948;DHT22;974;52.400;9.818;2023-07-31T08:22:52;16.80;99.90
1948;DHT22;974;52.400;9.818;2023-07-31T08:25:19;16.90;99.90
1948;DHT22;974;52.400;9.818;2023-07-31T08:27:44;16.90;99.90
1948;DHT22;974;52.400;9.818;2023-07-31T08:30:11;16.90;99.90
1948;DHT22;974;52.400;9.818;2023-07-31T08:32:37;16.80;99.90
1948;DHT22;974;52.400;9.818;2023-07-31T08:35:02;16.80;99.90
1948;DHT22;974;52.400;9.818;2023-07-31T08:37:31;16.80;99.90
1948;DHT22;974;52.400;9.818;2023-07-31T08:39:56;16.80;99.90
1948;DHT22;974;52.400;9.818;2023-07-31T08:42:26;16.90;99.90
1948;DHT22;974;52.400;9.818;2023-07-31T08:44:52;16.90;99.90
1948;DHT22;974;52.400;9.818;2023-07-31T08:47:22;16.90;99.90
1948;DHT22;974;52.400;9.818;2023-07-31T08:49:51;16.90;99.90
1948;DHT22;974;52.400;9.818;2023-07-31T08:52:18;16.90;99.90
1948;DHT22;974;52.400;9.818;2023-07-31T08:54:43;16.90;99.90
1948;DHT22;974;52.400;9.818;2023-07-31T08:57:10;16.90;99.90
1948;DHT22;974;52.400;9.818;2023-07-31T08:59:36;16.90;99.90
1948;DHT22;974;52.400;9.818;2023-07-31T09:02:08;17.00;99.90
1948;DHT22;974;52.400;9.818;2023-07-31T09:04:34;17.00;99.90
1948;DHT22;974;52.400;9.818;2023-07-31T09:07:03;17.00;99.90
1948;DHT22;974;52.400;9.818;2023-07-31T09:09:31;17.00;99.90
1948;DHT22;974;52.400;9.818;2023-07-31T09:11:57;17.00;99.90
1948;DHT22;974;52.400;9.818;2023-07-31T09:14:25;16.90;99.90
1948;DHT22;974;52.400;9.818;2023-07-31T09:19:45;17.00;99.90
1948;DHT22;974;52.400;9.818;2023-07-31T09:22:11;17.00;99.90
1948;DHT22;974;52.400;9.818;2023-07-31T09:24:36;17.00;99.90
1948;DHT22;974;52.400;9.818;2023-07-31T09:27:02;17.10;99.90
1948;DHT22;974;52.400;9.818;2023-07-31T09:29:28;17.10;99.90
1948;DHT22;974;52.400;9.818;2023-07-31T09:31:55;17.10;99.90
1948;DHT22;974;52.400;9.818;2023-07-31T09:34:29;17.10;99.90
1948;DHT22;974;52.400;9.818;2023-07-31T09:36:58;17.20;99.90
1948;DHT22;974;52.400;9.818;2023-07-31T09:39:26;17.20;99.90
1948;DHT22;974;52.400;9.818;2023-07-31T09:41:58;17.20;99.90
1948;DHT22;974;52.400;9.818;2023-07-31T09:44:40;17.20;99.90
1948;DHT22;974;52.400;9.818;2023-07-31T09:47:06;17.20;99.90
1948;DHT22;974;52.400;9.818;2023-07-31T09:49:31;17.20;99.90
1948;DHT22;974;52.400;9.818;2023-07-31T09:51:57;17.20;99.90
1948;DHT22;974;52.400;9.818;2023-07-31T09:54:26;17.20;99.90
1948;DHT22;974;52.400;9.818;2023-07-31T09:56:51;17.20;99.90
1948;DHT22;974;52.400;9.818;2023-07-31T09:59:18;17.20;99.90
1948;DHT22;974;52.400;9.818;2023-07-31T10:01:45;17.20;99.90
1948;DHT22;974;52.400;9.818;2023-07-31T10:04:15;17.20;99.90
1948;DHT22;974;52.400;9.818;2023-07-31T10:06:46;17.20;99.90
1948;DHT22;974;52.400;9.818;2023-07-31T10:09:15;17.20;99.90
1948;DHT22;974;52.400;9.818;2023-07-31T10:11:56;17.20;99.90
1948;DHT22;974;52.400;9.818;2023-07-31T10:14:26;17.10;99.90
1948;DHT22;974;52.400;9.818;2023-07-31T10:16:52;17.20;99.90
1948;DHT22;974;52.400;9.818;2023-07-31T10:19:18;17.20;99.90
1948;DHT22;974;52.400;9.818;2023-07-31T10:21:45;17.20;99.90
1948;DHT22;974;52.400;9.818;2023-07-31T10:24:12;17.20;99.90
1948;DHT22;974;52.400;9.818;2023-07-31T10:26:38;17.20;99.90
1948;DHT22;974;52.400;9.818;2023-07-31T10:29:05;17.20;99.90
1948;DHT22;974;52.400;9.818;2023-07-31T10:31:32;17.30;99.90
1948;DHT22;974;52.400;9.818;2023-07-31T10:33:58;17.40;99.90
1948;DHT22;974;52.400;9.818;2023-07-31T10:36:24;17.40;99.90
1948;DHT22;974;52.400;9.818;2023-07-31T10:38:51;17.40;99.90
1948;DHT22;974;52.400;9.818;2023-07-31T10:41:16;17.40;99.90
1948;DHT22;974;52.400;9.818;2023-07-31T10:43:42;17.40;99.90
1948;DHT22;974;52.400;9.818;2023-07-31T10:46:17;17.40;99.90
1948;DHT22;974;52.400;9.818;2023-07-31T10:48:42;17.40;99.90
1948;DHT22;974;52.400;9.818;2023-07-31T10:51:09;17.50;99.90
1948;DHT22;974;52.400;9.818;2023-07-31T10:53:36;17.50;99.90
1948;DHT22;974;52.400;9.818;2023-07-31T10:56:03;17.50;99.90
1948;DHT22;974;52.400;9.818;2023-07-31T10:58:30;17.50;99.90
1948;DHT22;974;52.400;9.818;2023-07-31T11:01:03;17.60;99.90
1948;DHT22;974;52.400;9.818;2023-07-31T11:03:49;17.60;99.90
1948;DHT22;974;52.400;9.818;2023-07-31T11:06:20;17.50;99.90
1948;DHT22;974;52.400;9.818;2023-07-31T11:08:47;17.60;99.90
1948;DHT22;974;52.400;9.818;2023-07-31T11:11:18;17.60;99.90
1948;DHT22;974;52.400;9.818;2023-07-31T11:13:49;17.60;99.90
1948;DHT22;974;52.400;9.818;2023-07-31T11:16:15;17.60;99.90
1948;DHT22;974;52.400;9.818;2023-07-31T11:18:42;17.60;99.90
1948;DHT22;974;52.400;9.818;2023-07-31T11:21:12;17.70;99.90
1948;DHT22;974;52.400;9.818;2023-07-31T11:23:38;17.70;99.90
1948;DHT22;974;52.400;9.818;2023-07-31T11:26:05;17.70;99.90
1948;DHT22;974;52.400;9.818;2023-07-31T11:28:32;17.70;99.90
1948;DHT22;974;52.400;9.818;2023-07-31T11:31:02;17.80;99.90
1948;DHT22;974;52.400;9.818;2023-07-31T11:33:28;17.80;99.90
1948;DHT22;974;52.400;9.818;2023-07-31T11:35:54;17.80;99.90
1948;DHT22;974;52.400;9.818;2023-07-31T11:38:27;17.80;99.90
1948;DHT22;974;52.400;9.818;2023-07-31T11:41:07;17.90;99.90
1948;DHT22;974;52.400;9.818;2023-07-31T11:43:32;18.00;99.90
1948;DHT22;974;52.400;9.818;2023-07-31T11:46:00;18.00;99.90
1948;DHT22;974;52.400;9.818;2023-07-31T11:48:36;18.00;99.90
1948;DHT22;974;52.400;9.818;2023-07-31T11:51:06;18.00;99.90
1948;DHT22;974;52.400;9.818;2023-07-31T11:53:49;18.00;99.90
1948;DHT22;974;52.400;9.818;2023-07-31T11:56:18;18.10;99.90
1948;DHT22;974;52.400;9.818;2023-07-31T11:58:46;18.10;99.90
1948;DHT22;974;52.400;9.818;2023-07-31T12:01:14;18.10;99.90
1948;DHT22;974;52.400;9.818;2023-07-31T12:03:43;18.20;99.90
1948;DHT22;974;52.400;9.818;2023-07-31T12:06:09;18.10;99.90
1948;DHT22;974;52.400;9.818;2023-07-31T12:08:38;18.10;99.90
1948;DHT22;974;52.400;9.818;2023-07-31T12:11:09;18.10;99.90
1948;DHT22;974;52.400;9.818;2023-07-31T12:13:39;18.10;99.90
1948;DHT22;974;52.400;9.818;2023-07-31T12:16:04;18.10;99.90
1948;DHT22;974;52.400;9.818;2023-07-31T12:18:35;18.10;99.90
1948;DHT22;974;52.400;9.818;2023-07-31T12:21:05;18.10;99.90
1948;DHT22;974;52.400;9.818;2023-07-31T12:23:35;18.10;99.90
1948;DHT22;974;52.400;9.818;2023-07-31T12:28:41;18.00;99.90
1948;DHT22;974;52.400;9.818;2023-07-31T12:31:12;18.10;99.90
1948;DHT22;974;52.400;9.818;2023-07-31T12:33:40;18.00;99.90
1948;DHT22;974;52.400;9.818;2023-07-31T12:36:17;18.10;99.90
1948;DHT22;974;52.400;9.818;2023-07-31T12:38:43;18.00;99.90
1948;DHT22;974;52.400;9.818;2023-07-31T12:41:10;18.10;99.90
1948;DHT22;974;52.400;9.818;2023-07-31T12:43:37;18.10;99.90
1948;DHT22;974;52.400;9.818;2023-07-31T12:46:02;18.00;99.90
1948;DHT22;974;52.400;9.818;2023-07-31T12:48:28;18.10;99.90
1948;DHT22;974;52.400;9.818;2023-07-31T12:50:54;18.00;99.90
1948;DHT22;974;52.400;9.818;2023-07-31T12:53:19;18.00;99.90
1948;DHT22;974;52.400;9.818;2023-07-31T12:55:45;18.00;99.90
1948;DHT22;974;52.400;9.818;2023-07-31T12:58:10;18.10;99.90
1948;DHT22;974;52.400;9.818;2023-07-31T13:00:36;18.10;99.90
1948;DHT22;974;52.400;9.818;2023-07-31T13:03:02;18.10;99.90
1948;DHT22;974;52.400;9.818;2023-07-31T13:05:28;18.10;99.90
1948;DHT22;974;52.400;9.818;2023-07-31T13:07:54;18.10;99.90
1948;DHT22;974;52.400;9.818;2023-07-31T13:10:22;18.10;99.90
1948;DHT22;974;52.400;9.818;2023-07-31T13:12:48;18.10;99.90
1948;DHT22;974;52.400;9.818;2023-07-31T13:15:13;18.10;99.90
1948;DHT22;974;52.400;9.818;2023-07-31T13:17:39;18.10;99.90
1948;DHT22;974;52.400;9.818;2023-07-31T13:20:05;18.10;99.90
1948;DHT22;974;52.400;9.818;2023-07-31T13:22:31;18.20;99.90
1948;DHT22;974;52.400;9.818;2023-07-31T13:24:56;18.20;99.90
1948;DHT22;974;52.400;9.818;2023-07-31T13:27:22;18.20;99.90
1948;DHT22;974;52.400;9.818;2023-07-31T13:29:48;18.20;99.90
1948;DHT22;974;52.400;9.818;2023-07-31T13:32:18;18.20;99.90
1948;DHT22;974;52.400;9.818;2023-07-31T13:34:45;18.20;99.90
1948;DHT22;974;52.400;9.818;2023-07-31T13:37:11;18.20;99.90
1948;DHT22;974;52.400;9.818;2023-07-31T13:39:37;18.20;99.90
1948;DHT22;974;52.400;9.818;2023-07-31T13:42:03;18.30;99.90
1948;DHT22;974;52.400;9.818;2023-07-31T13:44:32;18.30;99.90
1948;DHT22;974;52.400;9.818;2023-07-31T13:46:57;18.30;99.90
1948;DHT22;974;52.400;9.818;2023-07-31T13:49:23;18.40;99.90
1948;DHT22;974;52.400;9.818;2023-07-31T13:51:48;18.40;99.90
1948;DHT22;974;52.400;9.818;2023-07-31T13:54:14;18.50;99.90
1948;DHT22;974;52.400;9.818;2023-07-31T13:56:41;18.60;99.90
1948;DHT22;974;52.400;9.818;2023-07-31T13:59:06;18.60;99.90
1948;DHT22;974;52.400;9.818;2023-07-31T14:01:32;18.70;99.90
1948;DHT22;974;52.400;9.818;2023-07-31T14:03:58;18.70;99.90
1948;DHT22;974;52.400;9.818;2023-07-31T14:06:23;18.70;99.90
1948;DHT22;974;52.400;9.818;2023-07-31T14:08:49;18.70;99.90
1948;DHT22;974;52.400;9.818;2023-07-31T14:11:14;18.80;99.90
1948;DHT22;974;52.400;9.818;2023-07-31T14:13:40;18.80;99.90
1948;DHT22;974;52.400;9.818;2023-07-31T14:16:05;18.80;99.90
1948;DHT22;974;52.400;9.818;2023-07-31T14:18:31;18.90;99.90
1948;DHT22;974;52.400;9.818;2023-07-31T14:20:57;18.90;99.90
1948;DHT22;974;52.400;9.818;2023-07-31T14:23:22;18.90;99.90
1948;DHT22;974;52.400;9.818;2023-07-31T14:25:48;18.90;99.90
1948;DHT22;974;52.400;9.818;2023-07-31T14:28:14;18.90;99.90
1948;DHT22;974;52.400;9.818;2023-07-31T14:30:39;19.00;99.90
1948;DHT22;974;52.400;9.818;2023-07-31T14:33:05;19.00;99.90
1948;DHT22;974;52.400;9.818;2023-07-31T14:35:30;19.00;99.90
1948;DHT22;974;52.400;9.818;2023-07-31T14:37:56;19.00;99.90
1948;DHT22;974;52.400;9.818;2023-07-31T14:40:21;19.00;99.90
1948;DHT22;974;52.400;9.818;2023-07-31T14:42:47;19.00;99.90
1948;DHT22;974;52.400;9.818;2023-07-31T14:45:12;19.00;99.90
1948;DHT22;974;52.400;9.818;2023-07-31T14:47:38;19.00;99.90
1948;DHT22;974;52.400;9.818;2023-07-31T14:50:04;18.90;99.90
1948;DHT22;974;52.400;9.818;2023-07-31T14:52:37;18.90;99.90
1948;DHT22;974;52.400;9.818;2023-07-31T14:55:03;18.90;99.90
1948;DHT22;974;52.400;9.818;2023-07-31T14:57:29;18.90;99.90
1948;DHT22;974;52.400;9.818;2023-07-31T14:59:54;18.80;99.90
1948;DHT22;974;52.400;9.818;2023-07-31T15:02:20;18.80;99.90
1948;DHT22;974;52.400;9.818;2023-07-31T15:04:45;18.80;99.90
1948;DHT22;974;52.400;9.818;2023-07-31T15:07:11;18.80;99.90
1948;DHT22;974;52.400;9.818;2023-07-31T15:09:38;18.80;99.90
1948;DHT22;974;52.400;9.818;2023-07-31T15:12:04;18.80;99.90
1948;DHT22;974;52.400;9.818;2023-07-31T15:14:30;18.90;99.90
1948;DHT22;974;52.400;9.818;2023-07-31T15:16:56;19.00;99.90
1948;DHT22;974;52.400;9.818;2023-07-31T15:19:22;19.10;99.90
1948;DHT22;974;52.400;9.818;2023-07-31T15:21:48;19.20;99.90
1948;DHT22;974;52.400;9.818;2023-07-31T15:24:14;19.20;99.90
1948;DHT22;974;52.400;9.818;2023-07-31T15:26:39;19.30;99.90
1948;DHT22;974;52.400;9.818;2023-07-31T15:29:10;19.20;99.90
1948;DHT22;974;52.400;9.818;2023-07-31T15:31:41;19.20;99.90
1948;DHT22;974;52.400;9.818;2023-07-31T15:34:07;19.20;99.90
1948;DHT22;974;52.400;9.818;2023-07-31T15:36:33;19.20;99.90
1948;DHT22;974;52.400;9.818;2023-07-31T15:38:58;19.20;99.90
1948;DHT22;974;52.400;9.818;2023-07-31T15:41:27;19.20;99.90
1948;DHT22;974;52.400;9.818;2023-07-31T15:43:55;19.10;99.90
1948;DHT22;974;52.400;9.818;2023-07-31T15:46:20;19.10;99.90
1948;DHT22;974;52.400;9.818;2023-07-31T15:48:46;19.10;99.90
1948;DHT22;974;52.400;9.818;2023-07-31T15:51:11;19.10;99.90
1948;DHT22;974;52.400;9.818;2023-07-31T15:53:37;19.00;99.90
1948;DHT22;974;52.400;9.818;2023-07-31T15:56:03;19.10;99.90
1948;DHT22;974;52.400;9.818;2023-07-31T15:58:28;19.10;99.90
1948;DHT22;974;52.400;9.818;2023-07-31T16:00:54;19.00;99.90
1948;DHT22;974;52.400;9.818;2023-07-31T16:03:20;19.10;99.90
1948;DHT22;974;52.400;9.818;2023-07-31T16:05:49;19.10;99.90
1948;DHT22;974;52.400;9.818;2023-07-31T16:08:15;19.10;99.90
1948;DHT22;974;52.400;9.818;2023-07-31T16:10:40;19.10;99.90
1948;DHT22;974;52.400;9.818;2023-07-31T16:13:06;19.10;99.90
1948;DHT22;974;52.400;9.818;2023-07-31T16:15:31;19.20;99.90
1948;DHT22;974;52.400;9.818;2023-07-31T16:17:57;19.10;99.90
1948;DHT22;974;52.400;9.818;2023-07-31T16:20:23;19.20;99.90
1948;DHT22;974;52.400;9.818;2023-07-31T16:22:52;19.20;99.90
1948;DHT22;974;52.400;9.818;2023-07-31T16:25:19;19.20;99.90
1948;DHT22;974;52.400;9.818;2023-07-31T16:27:44;19.20;99.90